Terminal Aerodrome Forecast
Issued by NWS Pittsburgh, PA

Current Version | Previous Version | Text Only | Print | Product List | Glossary Off
Versions: 1 2 3 4 5 6 7 8 9 10 11 12 13 14 15 16 17 18 19 20 21 22 23 24 25 26 27 28 29 30 31 32 33 34

470
FTUS41 KPBZ 292055 AAB
TAFPIT
TAF AMD
KPIT 292055Z 2921/3024 31008KT P6SM SCT015 OVC020
      TEMPO 2922/2923 5SM -SHRA BKN015
     FM300400 VRB03KT 3SM BR BKN003
     FM300900 VRB03KT 5SM BR SCT003
     FM301500 10005KT P6SM SCT040
     FM302200 10005KT P6SM -RA OVC040=

USA.gov is the U.S. government's official web portal to all federal, state and local government web resources and services.